JST298 NZQN-NZAA
Flight info
| Callsign | JST298 |
|---|---|
| Flight time | 1h 33m |
| Altitude | 37000 |
| Route | QN Y569 LOVTA Y655 POKOM Q277 DAVEE |
| Aircraft | A320/M-SDE3FGHIRWY/LB1 |
Departure
| Time | 2026-05-04 04:29 |
|---|---|
| Airport | Queenstown Airport (NZQN) |
Arrival
| Time | 2026-05-04 06:03 |
|---|---|
| Airport | Auckland International Airport (NZAA) |
| Time | Latitude | Longitude | Altitude | Speed | Heading |
|---|---|---|---|---|---|
| 2026-05-04 04:09 | -45.02144 | 168.74058 | 1173 ft | 0 kts | 205° |
| 2026-05-04 04:21 | -45.02126 | 168.74073 | 1174 ft | 4 kts | 222° |
| 2026-05-04 04:21 | -45.02109 | 168.74100 | 1169 ft | 2 kts | 235° |
| 2026-05-04 04:22 | -45.02108 | 168.74102 | 1170 ft | 0 kts | 235° |
| 2026-05-04 04:24 | -45.02108 | 168.74101 | 1174 ft | 1 kts | 237° |
| 2026-05-04 04:24 | -45.02101 | 168.74090 | 1174 ft | 4 kts | 309° |
| 2026-05-04 04:24 | -45.02079 | 168.74058 | 1172 ft | 5 kts | 324° |
| 2026-05-04 04:25 | -45.02032 | 168.74065 | 1172 ft | 9 kts | 21° |
| 2026-05-04 04:25 | -45.01983 | 168.74093 | 1174 ft | 6 kts | 22° |
| 2026-05-04 04:25 | -45.01920 | 168.74133 | 1175 ft | 13 kts | 33° |
| 2026-05-04 04:25 | -45.01890 | 168.74260 | 1179 ft | 15 kts | 78° |
| 2026-05-04 04:26 | -45.01863 | 168.74441 | 1176 ft | 24 kts | 78° |
| 2026-05-04 04:26 | -45.01824 | 168.74701 | 1171 ft | 29 kts | 76° |
| 2026-05-04 04:26 | -45.01776 | 168.74985 | 1173 ft | 30 kts | 77° |
| 2026-05-04 04:26 | -45.01732 | 168.75278 | 1203 ft | 31 kts | 78° |
| 2026-05-04 04:27 | -45.01684 | 168.75573 | 1210 ft | 30 kts | 77° |
| 2026-05-04 04:27 | -45.01661 | 168.75779 | 1210 ft | 14 kts | 98° |
| 2026-05-04 04:27 | -45.01646 | 168.75840 | 1205 ft | 5 kts | 342° |
| 2026-05-04 04:27 | -45.01648 | 168.75804 | 1205 ft | 0 kts | 265° |
| 2026-05-04 04:28 | -45.01648 | 168.75803 | 1205 ft | 0 kts | 258° |
| 2026-05-04 04:28 | -45.01676 | 168.75634 | 1210 ft | 56 kts | 257° |
| 2026-05-04 04:28 | -45.01823 | 168.74713 | 1171 ft | 131 kts | 256° |
| 2026-05-04 04:29 | -45.02051 | 168.73293 | 1578 ft | 154 kts | 256° |
| 2026-05-04 04:29 | -45.02286 | 168.71786 | 2344 ft | 159 kts | 257° |
| 2026-05-04 04:29 | -45.02690 | 168.70315 | 3021 ft | 163 kts | 238° |
| 2026-05-04 04:29 | -45.03096 | 168.69525 | 3343 ft | 166 kts | 229° |
| 2026-05-04 04:30 | -45.04206 | 168.68255 | 4002 ft | 172 kts | 210° |
| 2026-05-04 04:30 | -45.05337 | 168.67736 | 4604 ft | 173 kts | 191° |
| 2026-05-04 04:30 | -45.06559 | 168.67727 | 5087 ft | 179 kts | 172° |
| 2026-05-04 04:30 | -45.07746 | 168.68303 | 5592 ft | 183 kts | 152° |
| 2026-05-04 04:31 | -45.08755 | 168.69425 | 6068 ft | 188 kts | 130° |
| 2026-05-04 04:31 | -45.09509 | 168.70947 | 6576 ft | 190 kts | 127° |
| 2026-05-04 04:31 | -45.10410 | 168.72324 | 7072 ft | 192 kts | 140° |
| 2026-05-04 04:31 | -45.11522 | 168.73421 | 7508 ft | 197 kts | 154° |
| 2026-05-04 04:32 | -45.12766 | 168.74160 | 8063 ft | 194 kts | 167° |
| 2026-05-04 04:32 | -45.14094 | 168.74548 | 8468 ft | 201 kts | 179° |
| 2026-05-04 04:32 | -45.15557 | 168.74537 | 8669 ft | 220 kts | 189° |
| 2026-05-04 04:32 | -45.17133 | 168.74369 | 8872 ft | 241 kts | 189° |
| 2026-05-04 04:33 | -45.18897 | 168.74165 | 9095 ft | 267 kts | 188° |
| 2026-05-04 04:33 | -45.20836 | 168.73951 | 9452 ft | 289 kts | 190° |
| 2026-05-04 04:33 | -45.22802 | 168.73306 | 10148 ft | 291 kts | 205° |
| 2026-05-04 04:33 | -45.24594 | 168.71987 | 10804 ft | 294 kts | 219° |
| 2026-05-04 04:34 | -45.26139 | 168.69979 | 11010 ft | 311 kts | 234° |
| 2026-05-04 04:34 | -45.27275 | 168.67307 | 11370 ft | 320 kts | 250° |
| 2026-05-04 04:34 | -45.27854 | 168.64242 | 12029 ft | 323 kts | 265° |
| 2026-05-04 04:34 | -45.27842 | 168.61085 | 12700 ft | 325 kts | 279° |
| 2026-05-04 04:35 | -45.27203 | 168.57993 | 13343 ft | 329 kts | 295° |
| 2026-05-04 04:35 | -45.25953 | 168.55259 | 14030 ft | 334 kts | 309° |
| 2026-05-04 04:35 | -45.24168 | 168.53104 | 14633 ft | 341 kts | 327° |
| 2026-05-04 04:35 | -45.21983 | 168.51739 | 15265 ft | 347 kts | 342° |
| 2026-05-04 04:36 | -45.19570 | 168.51278 | 15760 ft | 356 kts | 358° |
| 2026-05-04 04:36 | -45.17107 | 168.51846 | 16285 ft | 365 kts | 15° |
| 2026-05-04 04:36 | -45.14814 | 168.53460 | 16874 ft | 374 kts | 32° |
| 2026-05-04 04:36 | -45.12853 | 168.55934 | 17467 ft | 380 kts | 41° |
| 2026-05-04 04:37 | -45.07102 | 168.63898 | 19193 ft | 391 kts | 41° |
| 2026-05-04 04:37 | -45.05807 | 168.65686 | 19535 ft | 393 kts | 41° |
| 2026-05-04 04:38 | -45.03757 | 168.68257 | 20046 ft | 394 kts | 34° |
| 2026-05-04 04:38 | -45.01581 | 168.70626 | 20558 ft | 396 kts | 34° |
| 2026-05-04 04:38 | -44.98676 | 168.73778 | 21265 ft | 400 kts | 34° |
| 2026-05-04 04:38 | -44.97183 | 168.75394 | 21602 ft | 402 kts | 34° |
| 2026-05-04 04:39 | -44.94955 | 168.77807 | 22075 ft | 404 kts | 34° |
| 2026-05-04 04:39 | -44.92741 | 168.80199 | 22548 ft | 407 kts | 34° |
| 2026-05-04 04:39 | -44.90450 | 168.82667 | 23016 ft | 410 kts | 34° |
| 2026-05-04 04:39 | -44.87431 | 168.85917 | 23627 ft | 414 kts | 34° |
| 2026-05-04 04:40 | -44.85909 | 168.87554 | 23932 ft | 416 kts | 34° |
| 2026-05-04 04:40 | -44.83483 | 168.89766 | 24316 ft | 416 kts | 25° |
| 2026-05-04 04:40 | -44.80859 | 168.91502 | 24714 ft | 416 kts | 21° |
| 2026-05-04 04:40 | -44.78207 | 168.93171 | 25104 ft | 419 kts | 21° |
| 2026-05-04 04:41 | -44.75544 | 168.94847 | 25487 ft | 422 kts | 21° |
| 2026-05-04 04:41 | -44.72858 | 168.96537 | 25854 ft | 425 kts | 21° |
| 2026-05-04 04:41 | -44.70140 | 168.98248 | 26229 ft | 427 kts | 21° |
| 2026-05-04 04:41 | -44.67457 | 168.99938 | 26589 ft | 430 kts | 21° |
| 2026-05-04 04:42 | -44.64708 | 169.01667 | 26949 ft | 433 kts | 21° |
| 2026-05-04 04:42 | -44.61950 | 169.03403 | 27317 ft | 435 kts | 21° |
| 2026-05-04 04:42 | -44.59175 | 169.05149 | 27655 ft | 438 kts | 21° |
| 2026-05-04 04:42 | -44.56376 | 169.06907 | 28012 ft | 441 kts | 21° |
| 2026-05-04 04:43 | -44.53563 | 169.08694 | 28370 ft | 444 kts | 24° |
| 2026-05-04 04:43 | -44.51132 | 169.10579 | 28691 ft | 448 kts | 28° |
| 2026-05-04 04:43 | -44.48417 | 169.12761 | 29035 ft | 450 kts | 28° |
| 2026-05-04 04:43 | -44.45732 | 169.14918 | 29384 ft | 453 kts | 27° |
| 2026-05-04 04:44 | -44.42988 | 169.17124 | 29734 ft | 455 kts | 28° |
| 2026-05-04 04:44 | -44.40228 | 169.19339 | 30088 ft | 458 kts | 28° |
| 2026-05-04 04:44 | -44.37454 | 169.21555 | 30443 ft | 460 kts | 28° |
| 2026-05-04 04:44 | -44.34664 | 169.23776 | 30741 ft | 463 kts | 27° |
| 2026-05-04 04:45 | -44.31863 | 169.26007 | 31070 ft | 464 kts | 28° |
| 2026-05-04 04:45 | -44.29059 | 169.28242 | 31485 ft | 463 kts | 27° |
| 2026-05-04 04:45 | -44.26262 | 169.30469 | 31919 ft | 463 kts | 27° |
| 2026-05-04 04:47 | -44.09533 | 169.43725 | 34462 ft | 460 kts | 27° |
| 2026-05-04 04:47 | -44.06759 | 169.45915 | 34849 ft | 458 kts | 27° |
| 2026-05-04 04:47 | -44.03988 | 169.48099 | 35205 ft | 458 kts | 27° |
| 2026-05-04 04:47 | -44.01214 | 169.50281 | 35543 ft | 457 kts | 27° |
| 2026-05-04 04:48 | -43.98447 | 169.52457 | 35873 ft | 457 kts | 27° |
| 2026-05-04 04:49 | -43.87399 | 169.61109 | 37151 ft | 455 kts | 27° |
| 2026-05-04 04:49 | -43.84643 | 169.63264 | 37429 ft | 455 kts | 27° |
| 2026-05-04 04:49 | -43.79094 | 169.67588 | 37514 ft | 460 kts | 27° |
| 2026-05-04 04:50 | -43.73512 | 169.71936 | 37520 ft | 460 kts | 27° |
| 2026-05-04 04:50 | -43.67934 | 169.76282 | 37511 ft | 460 kts | 27° |
| 2026-05-04 04:51 | -43.62350 | 169.80611 | 37512 ft | 460 kts | 27° |
| 2026-05-04 04:51 | -43.56757 | 169.84928 | 37518 ft | 461 kts | 27° |
| 2026-05-04 04:52 | -43.51158 | 169.89250 | 37522 ft | 461 kts | 27° |
| 2026-05-04 04:52 | -43.45942 | 169.94297 | 37534 ft | 463 kts | 39° |
| 2026-05-04 04:53 | -43.41034 | 170.00038 | 37534 ft | 463 kts | 39° |
| 2026-05-04 04:53 | -43.36116 | 170.05752 | 37522 ft | 463 kts | 39° |
| 2026-05-04 04:54 | -43.31190 | 170.11467 | 37533 ft | 463 kts | 39° |
| 2026-05-04 04:54 | -43.26278 | 170.17173 | 37528 ft | 463 kts | 39° |
| 2026-05-04 04:55 | -43.21361 | 170.22862 | 37538 ft | 462 kts | 38° |
| 2026-05-04 04:55 | -43.16447 | 170.28546 | 37544 ft | 462 kts | 39° |
| 2026-05-04 04:56 | -43.11530 | 170.34222 | 37541 ft | 462 kts | 39° |
| 2026-05-04 04:56 | -43.06643 | 170.39840 | 37541 ft | 462 kts | 38° |
| 2026-05-04 04:57 | -43.01715 | 170.45489 | 37536 ft | 462 kts | 39° |
| 2026-05-04 04:57 | -42.96800 | 170.51119 | 37537 ft | 461 kts | 39° |
| 2026-05-04 04:58 | -42.91874 | 170.56742 | 37544 ft | 461 kts | 38° |
| 2026-05-04 04:58 | -42.86961 | 170.62354 | 37546 ft | 461 kts | 39° |
| 2026-05-04 04:59 | -42.82074 | 170.67925 | 37540 ft | 460 kts | 39° |
| 2026-05-04 04:59 | -42.77157 | 170.73502 | 37548 ft | 460 kts | 39° |
| 2026-05-04 05:00 | -42.72233 | 170.79062 | 37549 ft | 460 kts | 39° |
| 2026-05-04 05:01 | -42.64849 | 170.87416 | 37538 ft | 460 kts | 39° |
| 2026-05-04 05:01 | -42.59919 | 170.92965 | 37548 ft | 460 kts | 39° |
| 2026-05-04 05:02 | -42.54990 | 170.98507 | 37549 ft | 460 kts | 39° |
| 2026-05-04 05:02 | -42.50067 | 171.04042 | 37548 ft | 460 kts | 39° |
| 2026-05-04 05:03 | -42.45137 | 171.09566 | 37549 ft | 460 kts | 38° |
| 2026-05-04 05:04 | -42.35291 | 171.20532 | 37549 ft | 459 kts | 38° |
| 2026-05-04 05:04 | -42.30367 | 171.26026 | 37546 ft | 459 kts | 39° |
| 2026-05-04 05:06 | -42.10655 | 171.47860 | 37548 ft | 458 kts | 38° |
| 2026-05-04 05:07 | -42.05725 | 171.53279 | 37542 ft | 458 kts | 39° |
| 2026-05-04 05:07 | -42.00793 | 171.58689 | 37540 ft | 457 kts | 39° |
| 2026-05-04 05:09 | -41.79584 | 171.84307 | 37541 ft | 455 kts | 42° |
| 2026-05-04 05:10 | -41.74875 | 171.89977 | 37541 ft | 455 kts | 42° |
| 2026-05-04 05:10 | -41.70163 | 171.95642 | 37537 ft | 455 kts | 42° |
| 2026-05-04 05:11 | -41.65468 | 172.01300 | 37540 ft | 454 kts | 42° |
| 2026-05-04 05:11 | -41.60778 | 172.06947 | 37544 ft | 454 kts | 42° |
| 2026-05-04 05:12 | -41.56088 | 172.12579 | 37533 ft | 453 kts | 42° |
| 2026-05-04 05:12 | -41.51392 | 172.18209 | 37533 ft | 453 kts | 42° |
| 2026-05-04 05:13 | -41.46699 | 172.23826 | 37530 ft | 453 kts | 43° |
| 2026-05-04 05:13 | -41.41995 | 172.29438 | 37518 ft | 454 kts | 42° |
| 2026-05-04 05:14 | -41.37283 | 172.35035 | 37518 ft | 454 kts | 42° |
| 2026-05-04 05:14 | -41.32603 | 172.40595 | 37523 ft | 454 kts | 42° |
| 2026-05-04 05:15 | -41.27900 | 172.46182 | 37517 ft | 453 kts | 42° |
| 2026-05-04 05:15 | -41.23198 | 172.51756 | 37517 ft | 453 kts | 42° |
| 2026-05-04 05:16 | -41.18496 | 172.57321 | 37513 ft | 452 kts | 41° |
| 2026-05-04 05:16 | -41.13791 | 172.62857 | 37513 ft | 452 kts | 41° |
| 2026-05-04 05:17 | -41.09088 | 172.68382 | 37516 ft | 452 kts | 41° |
| 2026-05-04 05:17 | -41.04389 | 172.73891 | 37514 ft | 452 kts | 41° |
| 2026-05-04 05:18 | -40.99705 | 172.79382 | 37514 ft | 452 kts | 41° |
| 2026-05-04 05:18 | -40.95002 | 172.84897 | 37518 ft | 452 kts | 41° |
| 2026-05-04 05:19 | -40.90287 | 172.90403 | 37516 ft | 452 kts | 41° |
| 2026-05-04 05:19 | -40.85566 | 172.95900 | 37519 ft | 452 kts | 41° |
| 2026-05-04 05:20 | -40.80880 | 173.01344 | 37518 ft | 451 kts | 41° |
| 2026-05-04 05:20 | -40.76158 | 173.06814 | 37517 ft | 451 kts | 41° |
| 2026-05-04 05:21 | -40.71439 | 173.12277 | 37519 ft | 451 kts | 41° |
| 2026-05-04 05:21 | -40.66740 | 173.17714 | 37513 ft | 451 kts | 41° |
| 2026-05-04 05:22 | -40.62021 | 173.23159 | 37510 ft | 451 kts | 41° |
| 2026-05-04 05:22 | -40.57299 | 173.28595 | 37510 ft | 452 kts | 41° |
| 2026-05-04 05:23 | -40.52580 | 173.34016 | 37511 ft | 452 kts | 41° |
| 2026-05-04 05:23 | -40.47829 | 173.39466 | 37512 ft | 452 kts | 40° |
| 2026-05-04 05:24 | -40.43106 | 173.44878 | 37517 ft | 452 kts | 41° |
| 2026-05-04 05:24 | -40.38377 | 173.50274 | 37519 ft | 452 kts | 40° |
| 2026-05-04 05:25 | -40.33606 | 173.55694 | 37525 ft | 452 kts | 40° |
| 2026-05-04 05:25 | -40.28906 | 173.61018 | 37530 ft | 452 kts | 40° |
| 2026-05-04 05:26 | -40.24119 | 173.66441 | 37534 ft | 452 kts | 40° |
| 2026-05-04 05:26 | -40.20152 | 173.70933 | 37537 ft | 452 kts | 40° |
| 2026-05-04 05:28 | -40.01103 | 173.92381 | 37552 ft | 451 kts | 40° |
| 2026-05-04 05:29 | -39.96379 | 173.97675 | 37552 ft | 451 kts | 40° |
| 2026-05-04 05:29 | -39.91625 | 174.03001 | 37551 ft | 451 kts | 40° |
| 2026-05-04 05:31 | -39.72561 | 174.24232 | 37551 ft | 450 kts | 40° |
| 2026-05-04 05:32 | -39.67784 | 174.29512 | 37559 ft | 451 kts | 40° |
| 2026-05-04 05:33 | -39.60626 | 174.37429 | 37567 ft | 451 kts | 40° |
| 2026-05-04 05:33 | -39.55846 | 174.42695 | 37568 ft | 450 kts | 40° |
| 2026-05-04 05:34 | -39.50951 | 174.47747 | 37571 ft | 450 kts | 31° |
| 2026-05-04 05:34 | -39.45210 | 174.50829 | 37569 ft | 448 kts | 12° |
| 2026-05-04 05:35 | -39.38629 | 174.52147 | 37567 ft | 448 kts | 8° |
| 2026-05-04 05:35 | -39.32453 | 174.53334 | 37567 ft | 448 kts | 8° |
| 2026-05-04 05:36 | -39.26289 | 174.54530 | 37570 ft | 448 kts | 8° |
| 2026-05-04 05:36 | -39.20117 | 174.55720 | 37568 ft | 448 kts | 8° |
| 2026-05-04 05:37 | -39.13993 | 174.56890 | 37564 ft | 448 kts | 8° |
| 2026-05-04 05:37 | -39.07827 | 174.58066 | 37567 ft | 448 kts | 8° |
| 2026-05-04 05:38 | -38.98569 | 174.59825 | 37567 ft | 448 kts | 7° |
| 2026-05-04 05:38 | -38.92360 | 174.61001 | 37316 ft | 460 kts | 7° |
| 2026-05-04 05:39 | -38.89176 | 174.61605 | 37057 ft | 463 kts | 8° |
| 2026-05-04 05:39 | -38.82795 | 174.62815 | 36558 ft | 461 kts | 8° |
| 2026-05-04 05:39 | -38.79627 | 174.63413 | 36304 ft | 459 kts | 8° |
| 2026-05-04 05:40 | -38.73360 | 174.64591 | 35290 ft | 454 kts | 8° |
| 2026-05-04 05:40 | -38.70246 | 174.65182 | 34798 ft | 449 kts | 8° |
| 2026-05-04 05:40 | -38.67184 | 174.65764 | 33942 ft | 441 kts | 8° |
| 2026-05-04 05:41 | -38.64137 | 174.66338 | 33235 ft | 445 kts | 8° |
| 2026-05-04 05:41 | -38.61030 | 174.66918 | 32734 ft | 458 kts | 8° |
| 2026-05-04 05:41 | -38.57852 | 174.67509 | 32186 ft | 461 kts | 8° |
| 2026-05-04 05:41 | -38.54656 | 174.68106 | 31641 ft | 466 kts | 8° |
| 2026-05-04 05:42 | -38.51448 | 174.68706 | 31086 ft | 464 kts | 8° |
| 2026-05-04 05:42 | -38.48259 | 174.69305 | 30526 ft | 461 kts | 8° |
| 2026-05-04 05:42 | -38.45097 | 174.69899 | 29948 ft | 459 kts | 8° |
| 2026-05-04 05:42 | -38.41912 | 174.70493 | 29411 ft | 464 kts | 8° |
| 2026-05-04 05:43 | -38.38717 | 174.71091 | 28875 ft | 463 kts | 8° |
| 2026-05-04 05:43 | -38.35533 | 174.71687 | 28352 ft | 465 kts | 8° |
| 2026-05-04 05:43 | -38.32331 | 174.72284 | 27824 ft | 467 kts | 8° |
| 2026-05-04 05:45 | -38.09855 | 174.76458 | 24251 ft | 469 kts | 9° |
| 2026-05-04 05:45 | -38.06619 | 174.77058 | 23652 ft | 468 kts | 8° |
| 2026-05-04 05:47 | -37.84720 | 174.80665 | 19755 ft | 440 kts | 1° |
| 2026-05-04 05:47 | -37.81672 | 174.80705 | 19215 ft | 436 kts | 1° |
| 2026-05-04 05:47 | -37.78650 | 174.80743 | 18642 ft | 432 kts | 1° |
| 2026-05-04 05:48 | -37.75639 | 174.80781 | 18078 ft | 429 kts | 1° |
| 2026-05-04 05:48 | -37.72703 | 174.80819 | 17738 ft | 412 kts | 1° |
| 2026-05-04 05:48 | -37.69880 | 174.80853 | 17308 ft | 401 kts | 1° |
| 2026-05-04 05:48 | -37.67105 | 174.80886 | 16716 ft | 396 kts | 1° |
| 2026-05-04 05:49 | -37.64402 | 174.80919 | 16048 ft | 393 kts | 1° |
| 2026-05-04 05:49 | -37.61684 | 174.80955 | 15686 ft | 383 kts | 1° |
| 2026-05-04 05:49 | -37.59076 | 174.80988 | 15436 ft | 369 kts | 1° |
| 2026-05-04 05:49 | -37.56528 | 174.81022 | 14947 ft | 364 kts | 1° |
| 2026-05-04 05:51 | -37.39443 | 174.81244 | 11377 ft | 316 kts | 2° |
| 2026-05-04 05:51 | -37.37262 | 174.81270 | 10750 ft | 310 kts | 2° |
| 2026-05-04 05:52 | -37.35122 | 174.81298 | 10167 ft | 304 kts | 2° |
| 2026-05-04 05:52 | -37.33050 | 174.81327 | 9998 ft | 293 kts | 2° |
| 2026-05-04 05:52 | -37.31060 | 174.81353 | 9811 ft | 286 kts | 2° |
| 2026-05-04 05:52 | -37.29103 | 174.81236 | 9642 ft | 279 kts | 351° |
| 2026-05-04 05:53 | -37.27282 | 174.80413 | 9290 ft | 279 kts | 332° |
| 2026-05-04 05:54 | -37.20268 | 174.66794 | 6705 ft | 278 kts | 302° |
| 2026-05-04 05:55 | -37.19324 | 174.64685 | 6138 ft | 276 kts | 301° |
| 2026-05-04 05:55 | -37.18392 | 174.62601 | 5683 ft | 271 kts | 301° |
| 2026-05-04 05:55 | -37.17474 | 174.60552 | 5297 ft | 267 kts | 301° |
| 2026-05-04 05:55 | -37.16531 | 174.58609 | 5132 ft | 253 kts | 310° |
| 2026-05-04 05:56 | -37.15290 | 174.57123 | 4947 ft | 242 kts | 329° |
| 2026-05-04 05:56 | -37.13803 | 174.56216 | 4755 ft | 234 kts | 344° |
| 2026-05-04 05:56 | -37.12266 | 174.55565 | 4490 ft | 232 kts | 343° |
| 2026-05-04 05:56 | -37.10742 | 174.54912 | 4206 ft | 231 kts | 343° |
| 2026-05-04 05:57 | -37.09186 | 174.54572 | 3903 ft | 225 kts | 10° |
| 2026-05-04 05:57 | -37.07826 | 174.55402 | 3603 ft | 219 kts | 48° |
| 2026-05-04 05:57 | -37.07117 | 174.57019 | 3347 ft | 215 kts | 70° |
| 2026-05-04 05:57 | -37.06642 | 174.58796 | 3055 ft | 208 kts | 72° |
| 2026-05-04 05:58 | -37.06205 | 174.60427 | 2787 ft | 193 kts | 71° |
| 2026-05-04 05:58 | -37.05785 | 174.61968 | 2543 ft | 179 kts | 72° |
| 2026-05-04 05:58 | -37.05398 | 174.63384 | 2298 ft | 165 kts | 72° |
| 2026-05-04 05:58 | -37.05048 | 174.64671 | 2070 ft | 149 kts | 72° |
| 2026-05-04 05:59 | -37.04718 | 174.65854 | 1889 ft | 139 kts | 71° |
| 2026-05-04 05:59 | -37.04400 | 174.66982 | 1695 ft | 136 kts | 72° |
| 2026-05-04 05:59 | -37.04100 | 174.68101 | 1525 ft | 135 kts | 73° |
| 2026-05-04 05:59 | -37.03798 | 174.69219 | 1344 ft | 135 kts | 71° |
| 2026-05-04 06:00 | -37.03489 | 174.70319 | 1156 ft | 133 kts | 72° |
| 2026-05-04 06:00 | -37.03183 | 174.71424 | 976 ft | 134 kts | 72° |
| 2026-05-04 06:00 | -37.02885 | 174.72536 | 807 ft | 135 kts | 71° |
| 2026-05-04 06:00 | -37.02572 | 174.73658 | 636 ft | 137 kts | 72° |
| 2026-05-04 06:01 | -37.02258 | 174.74783 | 428 ft | 137 kts | 72° |
| 2026-05-04 06:01 | -37.01951 | 174.75903 | 278 ft | 135 kts | 71° |
| 2026-05-04 06:03 | -37.00662 | 174.79689 | 29 ft | 13 kts | 338° |
| 2026-05-04 06:03 | -37.00656 | 174.79589 | 25 ft | 14 kts | 256° |
| 2026-05-04 06:05 | -37.00759 | 174.78891 | 25 ft | 0 kts | 75° |